• Join FlightAware (Why Join?)
  • Login
  • US Flag 
09:06PM EST


 

Airport Tracker/Info


-or-


 

Live Flight TrackerFlight Track Log ✈ TAI570 ✈ 06-May-2013 ✈ MSLP / SAL - KJFK

Flight Track Log - Related Links

Times and Time Zones

All times are in EDT time to prevent confusion due to time zone crossing. See the TAI570 flight status page for this flight to view local times or setup timezone preferences in your user account.

Time Position Orientation Groundspeed Altitude Reporting Facility
EDT Latitude Longitude Course Direction KTS MPH feet Rate Location/Type
05:24PM 13.4300 -88.8530 93° East 245 282 7,400  Level FlightAware
05:25PM 13.4290 -88.8430 96° East 245 282 7,800 2,700 Climbing FlightAware
05:25PM 13.4280 -88.8150 92° East 246 283 9,000 2,760 Climbing FlightAware
05:25PM 13.4370 -88.7920 68° East 248 285 9,900 2,400 Climbing FlightAware
05:26PM 13.4500 -88.7830 34° Northeast 251 289 10,400 1,620 Climbing FlightAware
05:26PM 13.4990 -88.7690 16° North 290 334 11,400 1,260 Climbing FlightAware
05:27PM 13.5560 -88.7550 13° North 334 384 12,100 840 Climbing FlightAware
05:28PM 13.6390 -88.7330 14° North 357 411 12,800 420 Climbing FlightAware
05:29PM 13.6940 -88.7190 14° North 357 411 12,800  Level FlightAware
05:29PM 13.7480 -88.7050 14° North 357 411 12,800 3,480 Level FlightAware
05:30PM 13.8610 -88.6730 15° North 383 441 18,100 4,260 Climbing FlightAware
05:31PM 13.9300 -88.6540 15° North 387 445 19,200 1,740 Climbing FlightAware
05:31PM 14.0110 -88.6310 15° North 398 458 20,600 1,860 Climbing FlightAware
05:32PM 14.0840 -88.6120 14° North 396 456 21,900 1,500 Climbing FlightAware
05:33PM 14.1470 -88.5940 15° North 400 460 22,500 1,020 Climbing FlightAware
05:34PM 14.2400 -88.5690 15° North 420 483 23,400 1,080 Climbing FlightAware
05:34PM 14.3450 -88.5400 15° North 434 499 24,400 1,200 Climbing FlightAware
05:35PM 14.4240 -88.5180 15° North 436 502 25,300 1,200 Climbing FlightAware
05:36PM 14.5120 -88.4940 15° North 446 513 26,100 960 Climbing FlightAware
05:36PM 14.5740 -88.4770 15° North 446 513 26,500 240 Climbing FlightAware
05:37PM 14.6690 -88.4500 15° North 446 513 26,500  Level FlightAware
05:38PM 14.7360 -88.4320 15° North 446 513 26,500 1,260 Level FlightAware
05:39PM 14.8500 -88.4000 15° North 465 535 28,300 1,260 Climbing FlightAware
05:39PM 14.9210 -88.3810 14° North 465 535 28,300  Level FlightAware
05:40PM 14.9910 -88.3610 15° North 465 535 28,300  Level FlightAware
05:41PM 15.0620 -88.3420 14° North 465 535 28,300  Level FlightAware
05:41PM 15.1330 -88.3220 15° North 465 535 28,300  Level FlightAware
05:42PM 15.2210 -88.2970 15° North 465 535 28,300 360 Level FlightAware
05:45PM 15.5042 -88.1847 21° North  Level FlightAware Approximate
05:46PM 15.6272 -88.1358 21° North  Level FlightAware Approximate
05:47PM 15.7499 -88.0854 22° Northeast  Level FlightAware Approximate
05:48PM 15.8725 -88.0350 22° Northeast  Level FlightAware Approximate
05:49PM 15.9950 -87.9845 22° Northeast  Level FlightAware Approximate
05:50PM 16.1175 -87.9339 22° Northeast  Level FlightAware Approximate
05:51PM 16.2400 -87.8833 22° Northeast  Level FlightAware Approximate
05:52PM 16.3626 -87.8326 22° Northeast  Level FlightAware Approximate
05:53PM 16.4850 -87.7819 22° Northeast  Level FlightAware Approximate
05:54PM 16.6075 -87.7311 22° Northeast  Level FlightAware Approximate
05:55PM 16.7300 -87.6802 22° Northeast  Level FlightAware Approximate
05:56PM 16.8524 -87.6292 22° Northeast  Level FlightAware Approximate
05:57PM 16.9749 -87.5782 22° Northeast  Level FlightAware Approximate
05:58PM 17.0973 -87.5272 22° Northeast  Level FlightAware Approximate
05:59PM 17.2197 -87.4760 22° Northeast  Level FlightAware Approximate
06:00PM 17.3421 -87.4248 22° Northeast  Level FlightAware Approximate
06:01PM 17.4645 -87.3735 22° Northeast  Level FlightAware Approximate
06:02PM 17.5869 -87.3222 22° Northeast  Level FlightAware Approximate
06:03PM 17.7093 -87.2708 22° Northeast  Level FlightAware Approximate
06:03PM 17.9460 -87.5310 22° Northeast 483 556 37,000  Level FlightAware
06:03PM 18.0320 -87.5060 15° North 484 557 37,000  Level FlightAware
06:04PM 18.1060 -87.4850 15° North 484 557 37,000  Level FlightAware
06:05PM 18.2090 -87.4560 15° North 484 557 37,000  Level FlightAware
06:05PM 18.3010 -87.4290 16° North 485 558 37,000  Level FlightAware
06:06PM 18.3930 -87.4030 15° North 485 558 37,000  Level FlightAware
06:07PM 18.4670 -87.3820 15° North 485 558 37,000  Level FlightAware
06:08PM 18.5400 -87.3620 15° North 485 558 37,000  Level FlightAware
06:08PM 18.6880 -87.3400 North 481 554 37,000  Level FlightAware
06:09PM 18.7630 -87.3250 11° North 481 554 37,000  Level FlightAware
06:10PM 18.8370 -87.3090 12° North 481 554 37,000  Level FlightAware
06:11PM 18.9300 -87.2900 11° North 481 554 37,000  Level FlightAware
06:11PM 19.0040 -87.2750 11° North 481 554 37,000  Level FlightAware
06:12PM 19.1710 -87.2370 12° North 489 563 37,000  Level FlightAware
06:13PM 19.2580 -87.2180 12° North 490 564 37,000  Level FlightAware
06:13PM 19.3620 -87.1960 11° North 490 564 37,000  Level FlightAware
06:14PM 19.4490 -87.1770 12° North 490 564 37,000  Level FlightAware
06:15PM 19.5490 -87.1550 12° North 490 564 37,000  Level FlightAware
06:16PM 19.6390 -87.1360 11° North 490 564 37,000  Level FlightAware
06:16PM 19.7270 -87.1170 11° North 490 564 37,000  Level FlightAware
06:17PM 19.8300 -87.0950 11° North 489 563 37,000  Level FlightAware
06:18PM 19.9180 -87.0760 11° North 490 564 37,000  Level FlightAware
06:18PM 20.0180 -87.0540 12° North 491 565 37,000  Level FlightAware
06:19PM 20.1080 -87.0340 12° North 493 567 37,000  Level FlightAware
06:20PM 20.1960 -87.0150 11° North 495 570 37,000  Level FlightAware
06:20PM 20.2950 -86.9940 11° North 498 573 37,000  Level FlightAware
06:21PM 20.3930 -86.9730 11° North 500 575 37,000  Level FlightAware
06:22PM 20.4920 -86.9510 12° North 501 577 37,000  Level FlightAware
06:23PM 20.5810 -86.9310 12° North 500 575 37,000  Level FlightAware
06:23PM 20.6730 -86.9110 11° North 500 575 37,000  Level FlightAware
06:24PM 20.7780 -86.8880 12° North 501 577 37,000  Level FlightAware
06:25PM 20.8710 -86.8680 11° North 500 575 37,000  Level FlightAware
06:25PM 20.9670 -86.8470 12° North 499 574 37,000  Level FlightAware
06:26PM 21.0600 -86.8270 11° North 499 574 37,000  Level FlightAware
06:27PM 21.1500 -86.8070 12° North 499 574 37,000  Level FlightAware
06:27PM 21.2550 -86.7840 12° North 497 572 37,000  Level FlightAware
06:28PM 21.3460 -86.7640 12° North 496 571 37,000  Level FlightAware
06:29PM 21.4210 -86.7470 12° North 495 570 37,000  Level FlightAware
06:29PM 21.5230 -86.7250 11° North 495 570 37,000  Level FlightAware
06:30PM 21.6130 -86.7050 12° North 493 567 37,000  Level FlightAware
06:31PM 21.7030 -86.6850 12° North 492 566 37,000  Level FlightAware
06:32PM 21.8050 -86.6620 12° North 491 565 37,000  Level FlightAware
06:32PM 21.8940 -86.6420 12° North 490 564 37,000  Level FlightAware
06:33PM 21.9920 -86.6210 11° North 491 565 37,000  Level FlightAware
06:34PM 22.0830 -86.6010 12° North 493 567 37,000  Level FlightAware
06:34PM 22.1710 -86.5810 12° North 493 567 37,000  Level FlightAware
06:35PM 22.2710 -86.5580 12° North 493 567 37,000  Level FlightAware
06:36PM 22.3640 -86.5380 11° North 492 566 37,000 60 Level FlightAware
06:36PM 22.4520 -86.5180 12° North 485 558 37,100 60 Climbing FlightAware
06:37PM 22.5400 -86.4980 12° North 478 550 37,100 -120 Level FlightAware
06:38PM 22.6260 -86.4790 12° North 475 547 37,000 -120 Descending FlightAware
06:38PM 22.7110 -86.4600 12° North 471 542 37,000  Level FlightAware
06:39PM 22.8050 -86.4390 12° North 469 540 37,000  Level FlightAware
06:40PM 22.8920 -86.4190 12° North 468 539 37,000  Level FlightAware
06:41PM 22.9870 -86.3980 12° North 466 536 37,000  Level FlightAware
06:41PM 23.0740 -86.3780 12° North 465 535 37,000  Level FlightAware
06:42PM 23.1570 -86.3590 12° North 465 535 37,000  Level FlightAware
06:43PM 23.2510 -86.3380 12° North 465 535 37,000  Level FlightAware
06:43PM 23.3370 -86.3180 12° North 464 534 37,000  Level FlightAware
06:44PM 23.4210 -86.2990 12° North 462 532 37,000  Level FlightAware
06:45PM 23.4880 -86.2840 12° North 462 532 37,000  Level FlightAware
06:45PM 23.6000 -86.2590 12° North 462 532 37,000  Level FlightAware
06:46PM 23.6930 -86.2380 12° North 463 533 37,000  Level FlightAware
06:47PM 23.7760 -86.2180 12° North 463 533 37,000  Level FlightAware
06:47PM 23.8580 -86.2000 11° North 463 533 37,000  Level FlightAware
06:48PM 23.9510 -86.1780 12° North 465 535 37,000  Level FlightAware
06:49PM 24.0410 -86.1490 16° North 476 548 37,000  Level FlightAware
06:50PM 24.1300 -86.1030 25° Northeast 487 560 37,000  Level FlightAware
06:50PM 24.2070 -86.0550 30° Northeast 488 562 37,000  Level FlightAware
06:51PM 24.2990 -85.9980 29° Northeast 489 563 37,000  Level FlightAware
06:52PM 24.3760 -85.9510 29° Northeast 490 564 37,000  Level FlightAware
06:53PM 24.4700 -85.8920 30° Northeast 491 565 37,000  Level FlightAware
06:53PM 24.5550 -85.8410 29° Northeast 491 565 37,000  Level FlightAware
06:54PM 24.6220 -85.7990 30° Northeast 491 565 37,000  Level FlightAware
06:55PM 24.6900 -85.7580 29° Northeast 491 565 37,000  Level FlightAware
06:55PM 24.7580 -85.7170 29° Northeast 491 565 37,000  Level FlightAware
06:56PM 24.8250 -85.6760 29° Northeast 491 565 37,000  Level FlightAware
06:57PM 24.9100 -85.6240 29° Northeast 491 565 37,000  Level FlightAware
06:58PM 24.9770 -85.5830 29° Northeast 491 565 37,000  Level FlightAware
06:58PM 25.0450 -85.5410 29° Northeast 491 565 37,000  Level FlightAware
06:59PM 25.1120 -85.5000 29° Northeast 491 565 37,000  Level FlightAware
07:00PM 25.1800 -85.4590 29° Northeast 491 565 37,000  Level FlightAware
07:00PM 25.2470 -85.4170 30° Northeast 491 565 37,000  Level FlightAware
07:01PM 25.2980 -85.3860 29° Northeast 491 565 37,000  Level FlightAware
07:02PM 25.3820 -85.3350 29° Northeast 491 565 37,000  Level FlightAware
07:02PM 25.4330 -85.3030 30° Northeast 491 565 37,000  Level FlightAware
07:02PM 25.6800 -85.3106 30° Northeast 471 542 37,000  Level Houston Center
07:03PM 25.7614 -85.3044 North 468 539 37,000 -120 Level Miami Center
07:04PM 25.8872 -85.2903 North 463 533 36,900 -60 Descending Miami Center
07:06PM 26.0099 -85.2679 North  Level FlightAware Approximate
07:06PM 26.1400 -85.2483 North 457 526 36,900  Level Miami Center
07:07PM 26.2436 -85.1469 41° Northeast 463 533 36,900  Level Miami Center
07:08PM 26.3494 -85.0456 41° Northeast 476 548 36,900  Level Miami Center
07:09PM 26.4550 -84.9464 40° Northeast 486 559 36,900  Level Miami Center
07:11PM 26.6153 -84.7839 42° Northeast 498 573 37,000  Climbing Houston Center
07:16PM 27.2300 -84.1880 42° Northeast 498 573 37,000  Level FlightAware
07:17PM 27.3050 -84.1150 41° Northeast 493 567 37,000  Level FlightAware
07:18PM 27.3720 -84.0480 42° Northeast 495 570 37,000  Level FlightAware
07:19PM 27.4540 -83.9680 41° Northeast 497 572 37,000  Level FlightAware
07:19PM 27.5230 -83.9000 41° Northeast 497 572 37,000  Level FlightAware
07:20PM 27.5940 -83.8290 42° Northeast 497 572 37,000  Level FlightAware
07:21PM 27.6720 -83.7520 41° Northeast 497 572 37,000  Level FlightAware
07:21PM 27.7490 -83.6750 42° Northeast 499 574 37,000  Level FlightAware
07:22PM 27.8210 -83.6030 41° Northeast 500 575 37,000  Level FlightAware
07:23PM 27.8910 -83.5330 41° Northeast 500 575 37,000  Level FlightAware
07:23PM 27.9770 -83.4620 36° Northeast 496 571 37,000  Level FlightAware
07:24PM 28.0550 -83.4140 29° Northeast 479 551 37,000  Level FlightAware
07:25PM 28.1280 -83.3800 22° Northeast 477 549 37,000  Level FlightAware
07:26PM 28.2330 -83.3440 17° North 474 545 37,000  Level FlightAware
07:26PM 28.3160 -83.3160 17° North 467 537 37,000  Level FlightAware
07:27PM 28.4120 -83.2840 16° North 467 537 37,000  Level FlightAware
07:28PM 28.4960 -83.2550 17° North 474 545 37,000  Level FlightAware
07:28PM 28.5780 -83.2270 17° North 468 539 37,000  Level FlightAware
07:29PM 28.6760 -83.1930 17° North 472 543 37,000  Level FlightAware
07:30PM 28.7920 -83.1530 17° North 484 557 37,000  Level FlightAware
07:31PM 28.8910 -83.1190 17° North 486 559 37,000  Level FlightAware
07:31PM 28.9760 -83.0890 17° North 488 562 37,000  Level FlightAware
07:32PM 29.0530 -83.0630 16° North 489 563 37,000  Level FlightAware
07:33PM 29.1590 -83.0260 17° North 489 563 37,000  Level FlightAware
07:34PM 29.2670 -82.9890 17° North 489 563 37,000  Level FlightAware
07:34PM 29.3670 -82.9540 17° North 490 564 37,000  Level FlightAware
07:35PM 29.4630 -82.9200 17° North 489 563 37,000  Level FlightAware
07:36PM 29.5770 -82.8800 17° North 490 564 37,000  Level FlightAware
07:37PM 29.6510 -82.8540 17° North 490 564 37,000  Level FlightAware
07:37PM 29.7240 -82.8280 17° North 490 564 37,000  Level FlightAware
07:38PM 29.8170 -82.7960 17° North 490 564 37,000  Level FlightAware
07:39PM 29.9360 -82.7550 17° North 493 567 37,000  Level FlightAware
07:40PM 30.0440 -82.7170 17° North 493 567 37,000 60 Level FlightAware
07:40PM 30.1280 -82.6860 18° North 488 562 37,100 60 Climbing FlightAware
07:41PM 30.2020 -82.6600 17° North 488 562 37,100  Level FlightAware
07:42PM 30.2940 -82.6280 17° North 488 562 37,100  Level FlightAware
07:42PM 30.3670 -82.6020 17° North 488 562 37,100 -60 Level FlightAware
07:45PM 30.6975 -82.3586 41° Northeast 500 575 37,000 -60 Descending Jacksonville Center
07:46PM 30.8161 -82.2394 41° Northeast 505 581 37,000  Level Jacksonville Center
07:47PM 30.9239 -82.1272 42° Northeast 511 588 37,000  Level Jacksonville Center
07:48PM 31.0319 -82.0172 41° Northeast 511 588 37,000  Level Jacksonville Center
07:50PM 31.0490 -81.9879 41° Northeast  Level FlightAware Approximate
07:54PM 31.6010 -81.4230 41° Northeast 509 586 37,000  Level FlightAware
07:54PM 31.6820 -81.3370 42° Northeast 508 585 37,000  Level FlightAware
07:55PM 31.7850 -81.2320 41° Northeast 508 585 37,000  Level FlightAware
07:56PM 31.8660 -81.1540 39° Northeast 510 587 37,000  Level FlightAware
07:57PM 31.9570 -81.0640 40° Northeast 513 590 37,000  Level FlightAware
07:58PM 32.0580 -80.9650 40° Northeast 515 593 37,000  Level FlightAware
07:58PM 32.1290 -80.8940 40° Northeast 515 593 37,000  Level FlightAware
07:59PM 32.2100 -80.8120 41° Northeast 515 593 37,000  Level FlightAware
08:00PM 32.2840 -80.7380 40° Northeast 513 590 37,000  Level FlightAware
08:00PM 32.3650 -80.6570 40° Northeast 510 587 37,000  Level FlightAware
08:01PM 32.4380 -80.5840 40° Northeast 507 583 37,000  Level FlightAware
08:02PM 32.5080 -80.5130 41° Northeast 505 581 37,000  Level FlightAware
08:02PM 32.5880 -80.4320 40° Northeast 503 579 37,000  Level FlightAware
08:03PM 32.6590 -80.3610 40° Northeast 502 578 37,000 -120 Level FlightAware
08:04PM 32.7370 -80.2820 40° Northeast 503 579 36,900  Descending FlightAware
08:05PM 32.8090 -80.2090 40° Northeast 504 580 37,000 60 Climbing FlightAware
08:05PM 32.8800 -80.1370 40° Northeast 507 583 37,000  Level FlightAware
08:06PM 32.9620 -80.0530 41° Northeast 508 585 37,000  Level FlightAware
08:07PM 33.0320 -79.9810 41° Northeast 509 586 37,000  Level FlightAware
08:07PM 33.1010 -79.9100 41° Northeast 510 587 37,000 60 Level FlightAware
08:08PM 33.1820 -79.8260 41° Northeast 508 585 37,100  Climbing FlightAware
08:09PM 33.2550 -79.7510 41° Northeast 508 585 37,000 -120 Descending FlightAware
08:09PM 33.3340 -79.6700 41° Northeast 507 583 37,000  Level FlightAware
08:10PM 33.4060 -79.5950 41° Northeast 505 581 37,000  Level FlightAware
08:11PM 33.4860 -79.5120 41° Northeast 504 580 37,000  Level FlightAware
08:12PM 33.5530 -79.4420 41° Northeast 503 579 37,000  Level FlightAware
08:12PM 33.6260 -79.3660 41° Northeast 502 578 37,000  Level FlightAware
08:13PM 33.7040 -79.2850 41° Northeast 502 578 37,000  Level FlightAware
08:14PM 33.7740 -79.2120 41° Northeast 501 577 37,000  Level FlightAware
08:14PM 33.8530 -79.1290 41° Northeast 499 574 37,000  Level FlightAware
08:15PM 33.9210 -79.0570 41° Northeast 496 571 37,000  Level FlightAware
08:16PM 33.9920 -78.9830 41° Northeast 496 571 37,000  Level FlightAware
08:16PM 34.0660 -78.9040 41° Northeast 495 570 37,000  Level FlightAware
08:17PM 34.1360 -78.8300 41° Northeast 496 571 37,000  Level FlightAware
08:18PM 34.2120 -78.7490 41° Northeast 499 574 37,000  Level FlightAware
08:19PM 34.2830 -78.6730 41° Northeast 500 575 37,000  Level FlightAware
08:19PM 34.3420 -78.6120 40° Northeast 501 577 37,000 60 Level FlightAware
08:20PM 34.4320 -78.5220 40° Northeast 498 573 37,100  Climbing FlightAware
08:21PM 34.4970 -78.4560 40° Northeast 498 573 37,000 -120 Descending FlightAware
08:22PM 34.6010 -78.3500 40° Northeast 497 572 37,000  Level FlightAware
08:23PM 34.7380 -78.2110 40° Northeast 499 574 37,000  Level FlightAware
08:24PM 34.8110 -78.1390 39° Northeast 499 574 37,000  Level FlightAware
08:24PM 34.8720 -78.0790 39° Northeast 499 574 37,000  Level FlightAware
08:25PM 34.9330 -78.0180 39° Northeast 499 574 37,000  Level FlightAware
08:26PM 35.0100 -77.9430 39° Northeast 499 574 37,000  Level FlightAware
08:26PM 35.0710 -77.8830 39° Northeast 499 574 37,000  Level FlightAware
08:27PM 35.1320 -77.8220 39° Northeast 499 574 37,000  Level FlightAware
08:28PM 35.1930 -77.7620 39° Northeast 499 574 37,000  Level FlightAware
08:28PM 35.2540 -77.7010 39° Northeast 499 574 37,000  Level FlightAware
08:29PM 35.3300 -77.6260 39° Northeast 499 574 37,000  Level FlightAware
08:30PM 35.3910 -77.5650 39° Northeast 499 574 37,000  Level FlightAware
08:31PM 35.4520 -77.5050 39° Northeast 499 574 37,000  Level FlightAware
08:31PM 35.5130 -77.4440 39° Northeast 499 574 37,000  Level FlightAware
08:32PM 35.5740 -77.3830 39° Northeast 499 574 37,000  Level FlightAware
08:33PM 35.8180 -77.1650 36° Northeast 494 568 37,000  Level FlightAware
08:34PM 35.9120 -77.0840 35° Northeast 493 567 37,000 -60 Level FlightAware
08:34PM 35.9950 -77.0090 36° Northeast 37,000 -60 Level FlightAware
08:36PM 36.1710 -76.8530 36° Northeast 37,000 -60 Level FlightAware
08:37PM 36.2580 -76.7750 36° Northeast 476 548 36,900 -120 Descending FlightAware
08:38PM 36.3270 -76.7120 36° Northeast 476 548 36,900  Level FlightAware
08:38PM 36.3880 -76.6580 35° Northeast 476 548 36,900  Level FlightAware
08:39PM 36.5340 -76.5260 36° Northeast 482 555 37,000  Climbing FlightAware
08:40PM 36.5960 -76.4700 36° Northeast 482 555 37,000  Level FlightAware
08:41PM 36.6950 -76.3800 36° Northeast 479 551 37,000  Level FlightAware
08:42PM 36.7580 -76.3230 36° Northeast 479 551 37,000  Level FlightAware
08:42PM 36.8540 -76.2350 36° Northeast 478 550 37,000  Level FlightAware
08:43PM 36.9224 -76.1858 30° Northeast 486 559 37,000  Level FlightAware ADS-B
08:43PM 36.9843 -76.1514 24° Northeast 487 560 37,000  Level FlightAware ADS-B
08:44PM 37.0477 -76.1180 23° Northeast 486 559 37,000  Level FlightAware ADS-B
08:45PM 37.1326 -76.0729 23° Northeast 484 557 37,000  Level FlightAware ADS-B
08:45PM 37.2104 -76.0312 23° Northeast 481 554 37,000  Level FlightAware ADS-B
08:46PM 37.2775 -75.9953 23° Northeast 478 550 37,000  Level FlightAware ADS-B
08:46PM 37.3441 -75.9600 23° Northeast 477 549 37,000  Level FlightAware ADS-B
08:47PM 37.4056 -75.9271 23° Northeast 476 548 37,000  Level FlightAware ADS-B
08:47PM 37.4698 -75.8922 23° Northeast 475 547 37,000  Level FlightAware ADS-B
08:48PM 37.5937 -75.8131 27° Northeast 472 543 37,000  Level FlightAware ADS-B
08:49PM 37.6514 -75.7697 31° Northeast 471 542 37,000  Level FlightAware ADS-B
08:49PM 37.7078 -75.7276 31° Northeast 471 542 37,000  Level FlightAware ADS-B
08:50PM 37.7711 -75.6801 31° Northeast 470 541 37,000  Level FlightAware ADS-B
08:50PM 37.8287 -75.6368 31° Northeast 471 542 37,000  Level FlightAware ADS-B
08:51PM 37.8923 -75.5886 31° Northeast 472 543 37,000  Level FlightAware ADS-B
08:52PM 37.9882 -75.5160 31° Northeast 472 543 37,000  Level FlightAware ADS-B
08:52PM 38.0463 -75.4720 31° Northeast 473 544 37,000 -300 Level FlightAware ADS-B
08:53PM 38.1098 -75.4307 27° Northeast 473 544 36,700 -720 Descending FlightAware ADS-B
08:53PM 38.1693 -75.3934 26° Northeast 469 540 36,300 -900 Descending FlightAware ADS-B
08:54PM 38.2306 -75.3545 26° Northeast 469 540 35,800 -960 Descending FlightAware ADS-B
08:55PM 38.3020 -75.3090 27° Northeast 466 536 35,100 -900 Descending FlightAware
08:55PM 38.3256 -75.2942 26° Northeast 470 541 35,100 -180 Level FlightAware ADS-B
08:55PM 38.3839 -75.2572 26° Northeast 463 533 35,000 -120 Descending FlightAware ADS-B
08:56PM 38.4421 -75.2201 27° Northeast 465 535 35,000  Level FlightAware ADS-B
08:56PM 38.5042 -75.1806 26° Northeast 467 537 35,000  Level FlightAware ADS-B
08:57PM 38.5806 -75.1319 26° Northeast 467 537 35,000  Level FlightAware ADS-B
08:58PM 38.6392 -75.0948 26° Northeast 463 533 35,000 -240 Level FlightAware ADS-B
08:58PM 38.7032 -75.0538 27° Northeast 462 532 34,800 -720 Descending FlightAware ADS-B
08:59PM 38.7609 -75.0167 27° Northeast 457 526 34,300 -1,020 Descending FlightAware ADS-B
08:59PM 38.8363 -74.9681 27° Northeast 454 522 33,600 -1,380 Descending FlightAware ADS-B
09:00PM 38.8936 -74.9312 27° Northeast 457 526 32,700 -1,920 Descending FlightAware ADS-B
09:00PM 38.9517 -74.8937 27° Northeast 465 535 31,700 -2,100 Descending FlightAware ADS-B
09:01PM 39.0104 -74.8558 27° Northeast 472 543 30,600 -2,160 Descending FlightAware ADS-B
09:01PM 39.0769 -74.8127 27° Northeast 473 544 29,400 -2,100 Descending FlightAware ADS-B
09:02PM 39.1018 -74.7933 31° Northeast 467 537 29,000 -2,280 Descending FlightAware ADS-B
09:02PM 39.1072 -74.7882 36° Northeast 466 536 28,800 -2,340 Descending FlightAware ADS-B
09:02PM 39.1571 -74.7343 40° Northeast 456 525 27,700 -2,100 Descending FlightAware ADS-B
09:03PM 39.2051 -74.6823 40° Northeast 446 513 26,700 -2,100 Descending FlightAware ADS-B
09:03PM 39.2533 -74.6302 40° Northeast 440 506 25,600 -2,220 Descending FlightAware ADS-B
09:04PM 39.3013 -74.5783 40° Northeast 448 516 24,500 -2,220 Descending FlightAware ADS-B
09:04PM 39.3486 -74.5272 40° Northeast 442 509 23,400 -2,100 Descending FlightAware ADS-B
09:05PM 39.3958 -74.4759 40° Northeast 436 502 22,400 -2,040 Descending FlightAware ADS-B
09:05PM 39.4430 -74.4244 40° Northeast 429 494 21,300 -2,220 Descending FlightAware ADS-B
09:06PM 39.4884 -74.3748 40° Northeast 426 490 20,200 -2,220 Descending FlightAware ADS-B
09:06PM 39.5351 -74.3232 40° Northeast 423 487 19,100 -1,980 Descending FlightAware ADS-B
09:07PM 39.5804 -74.2738 40° Northeast 412 474 18,200 -1,560 Descending FlightAware ADS-B
09:07PM 39.6256 -74.2245 40° Northeast 407 468 17,500 -1,680 Descending FlightAware ADS-B
09:08PM 39.6680 -74.1779 40° Northeast 392 451 16,500 -1,920 Descending FlightAware ADS-B
09:08PM 39.7092 -74.1324 40° Northeast 387 445 15,600 -1,560 Descending FlightAware ADS-B
09:09PM 39.7521 -74.0845 41° Northeast 390 449 14,900 -1,380 Descending FlightAware ADS-B
09:09PM 39.7934 -74.0391 40° Northeast 384 442 14,200 -1,740 Descending FlightAware ADS-B
09:10PM 39.8464 -73.9830 39° Northeast 378 435 12,900 -2,040 Descending FlightAware ADS-B
09:10PM 39.8827 -73.9565 29° Northeast 374 430 12,100 -1,380 Descending FlightAware ADS-B
09:11PM 39.9259 -73.9262 28° Northeast 341 392 11,700 -720 Descending FlightAware ADS-B
09:11PM 39.9692 -73.8957 28° Northeast 314 361 11,400 -780 Descending FlightAware ADS-B
09:12PM 40.0069 -73.8690 28° Northeast 299 344 10,900 -600 Descending FlightAware ADS-B
09:12PM 40.0471 -73.8437 26° Northeast 299 344 10,800 -120 Descending FlightAware ADS-B
09:13PM 40.0862 -73.8198 25° Northeast 297 342 10,800 -600 Level FlightAware ADS-B
09:13PM 40.1257 -73.7955 25° Northeast 291 335 10,200 -1,500 Descending FlightAware ADS-B
09:14PM 40.1448 -73.7838 25° Northeast 287 330 9,600 -2,100 Descending FlightAware ADS-B
09:14PM 40.1638 -73.7719 26° Northeast 283 326 9,100 -1,320 Descending FlightAware ADS-B
09:14PM 40.1822 -73.7605 25° Northeast 265 305 8,900 -840 Descending FlightAware ADS-B
09:15PM 40.2034 -73.7472 26° Northeast 254 292 8,600 -1,020 Descending FlightAware ADS-B
09:15PM 40.2192 -73.7375 25° Northeast 245 282 8,300 -1,320 Descending FlightAware ADS-B
09:15PM 40.2362 -73.7273 25° Northeast 240 276 7,900 -1,620 Descending FlightAware ADS-B
09:15PM 40.2469 -73.7234 16° North 240 276 7,600 -1,800 Descending FlightAware ADS-B
09:16PM 40.2644 -73.7278 349° North 243 280 7,100 -1,680 Descending FlightAware ADS-B
09:16PM 40.2723 -73.7353 324° Northwest 247 284 6,900 -1,500 Descending FlightAware ADS-B
09:16PM 40.2753 -73.7402 309° West 248 285 6,800 -1,380 Descending FlightAware ADS-B
09:16PM 40.2779 -73.7454 303° West 248 285 6,700 -960 Descending FlightAware ADS-B
09:16PM 40.2854 -73.7642 298° West 243 280 6,500 -780 Descending FlightAware ADS-B
09:16PM 40.2947 -73.7883 297° West 237 273 6,300 -900 Descending FlightAware ADS-B
09:17PM 40.3025 -73.8083 297° West 237 273 6,000 -1,320 Descending FlightAware ADS-B
09:17PM 40.3108 -73.8295 297° West 236 272 5,600 -1,320 Descending FlightAware ADS-B
09:17PM 40.3183 -73.8486 297° West 237 273 5,300 -1,020 Descending FlightAware ADS-B
09:17PM 40.3260 -73.8676 298° West 236 272 5,100 -1,020 Descending FlightAware ADS-B
09:18PM 40.3337 -73.8864 298° West 234 269 4,800 -1,020 Descending FlightAware ADS-B
09:18PM 40.3419 -73.9060 299° West 226 260 4,600 -600 Descending FlightAware ADS-B
09:18PM 40.3496 -73.9247 298° West 219 252 4,500 -600 Descending FlightAware ADS-B
09:18PM 40.3571 -73.9423 299° West 212 244 4,300 -600 Descending FlightAware ADS-B
09:19PM 40.3644 -73.9593 299° West 206 237 4,200 -840 Descending FlightAware ADS-B
09:19PM 40.3713 -73.9756 299° West 204 235 3,900 -1,020 Descending FlightAware ADS-B
09:19PM 40.3782 -73.9922 299° West 202 232 3,700 -900 Descending FlightAware ADS-B
09:19PM 40.3835 -74.0038 301° West 203 234 3,500 -1,080 Descending FlightAware ADS-B
09:20PM 40.3880 -74.0092 318° Northwest 204 235 3,400 -1,200 Descending FlightAware ADS-B
09:20PM 40.3913 -74.0118 329° Northwest 203 234 3,300 -1,380 Descending FlightAware ADS-B
09:20PM 40.3952 -74.0137 340° North 203 234 3,200 -1,020 Descending FlightAware ADS-B
09:20PM 40.4014 -74.0150 351° North 199 229 3,100 -900 Descending FlightAware ADS-B
09:20PM 40.4080 -74.0153 358° North 195 224 3,000 -540 Descending FlightAware ADS-B
09:20PM 40.4221 -74.0145 North 191 220 2,900 -360 Descending FlightAware ADS-B
09:21PM 40.4589 -74.0135 North 193 222 2,700 -240 Descending FlightAware ADS-B
09:21PM 40.4770 -74.0035 23° Northeast 188 216 2,700  Level FlightAware ADS-B
09:22PM 40.4916 -73.9927 29° Northeast 188 216 2,700  Level FlightAware ADS-B